Time;durP1;ratioP1;P1;durP2;ratioP2;P2;SDS_P1;SDS_P2;PMS_P1;PMS_P2;Temp;Humidity;BMP_temperature;BMP_pressure;BME280_temperature;BME280_humidity;BME280_pressure;Samples;Min_cycle;Max_cycle;Signal;HPM_P1;HPM_P2
2023/05/04 00:00:14;;;;;;;9.80;5.78;;;;;;;8.73;73.42;101732.14;5117508;56;1136773;-77
2023/05/04 00:05:22;;;;;;;12.67;5.77;;;;;;;8.55;74.09;101734.41;5097628;56;1134523;-77
2023/05/04 00:10:27;;;;;;;13.95;6.28;;;;;;;8.39;75.50;101734.30;5097823;55;1136856;-75
2023/05/04 00:15:33;;;;;;;36.45;11.18;;;;;;;8.40;75.73;101727.61;5117849;55;1136628;-75
2023/05/04 00:20:38;;;;;;;16.30;6.87;;;;;;;8.46;75.72;101731.28;5097088;55;1138744;-77
2023/05/04 00:25:44;;;;;;;17.70;8.40;;;;;;;8.42;75.17;101727.54;5097300;55;1136662;-75
2023/05/04 00:30:53;;;;;;;26.17;11.48;;;;;;;8.42;75.40;101732.34;5115594;55;1137138;-77
2023/05/04 00:35:58;;;;;;;19.17;9.00;;;;;;;8.44;75.49;101718.63;4970598;57;1138698;-76
2023/05/04 00:41:04;;;;;;;22.00;8.90;;;;;;;8.42;75.44;101724.44;4951838;57;1136630;-75
2023/05/04 00:46:11;;;;;;;16.73;8.03;;;;;;;8.39;75.55;101722.45;5097544;55;1136777;-77
2023/05/04 00:51:19;;;;;;;19.40;9.00;;;;;;;8.39;75.67;101723.77;5117024;55;1136837;-75
2023/05/04 00:56:25;;;;;;;18.57;8.45;;;;;;;8.38;75.59;101722.91;5097654;55;1136832;-76
2023/05/04 01:01:31;;;;;;;20.07;8.67;;;;;;;8.40;75.70;101725.47;5097540;55;1136740;-76
2023/05/04 01:07:02;;;;;;;20.00;10.50;;;;;;;8.36;75.53;101729.17;5117431;55;1136642;-76
2023/05/04 01:12:26;;;;;;;15.83;9.93;;;;;;;8.35;75.49;101726.15;5096743;55;1140804;-76
2023/05/04 01:17:32;;;;;;;12.35;7.92;;;;;;;8.32;75.78;101723.20;5096929;55;1138889;-76
2023/05/04 01:22:39;;;;;;;16.80;9.67;;;;;;;8.26;75.71;101723.45;5117011;55;1138787;-78
2023/05/04 01:27:51;;;;;;;20.70;8.67;;;;;;;8.22;75.78;101722.38;5097161;55;1136657;-76
2023/05/04 01:33:01;;;;;;;18.48;8.38;;;;;;;8.18;75.86;101725.62;5093596;55;1136849;-76
2023/05/04 01:38:06;;;;;;;18.20;7.50;;;;;;;8.17;75.86;101723.91;5033032;57;1136645;-77
2023/05/04 01:43:12;;;;;;;13.30;7.43;;;;;;;8.12;75.70;101724.59;5052849;57;1136587;-76
2023/05/04 01:48:18;;;;;;;13.33;7.70;;;;;;;7.99;75.58;101718.20;5033161;56;1136601;-76
2023/05/04 01:53:23;;;;;;;17.17;8.30;;;;;;;7.92;75.62;101720.29;5033449;56;1137001;-75
2023/05/04 01:58:29;;;;;;;15.08;8.83;;;;;;;7.79;75.18;101713.05;5053015;56;1136825;-76
2023/05/04 02:03:35;;;;;;;18.35;7.95;;;;;;;7.57;75.04;101710.08;5033553;56;1136724;-76
2023/05/04 02:08:42;;;;;;;16.50;8.80;;;;;;;7.51;75.91;101707.72;5033213;56;1136646;-75
2023/05/04 02:13:47;;;;;;;21.40;9.03;;;;;;;7.52;76.49;101707.25;5053001;56;1136787;-76
2023/05/04 02:18:53;;;;;;;22.20;9.13;;;;;;;7.48;76.31;101710.52;5032964;57;1136749;-77
2023/05/04 02:23:58;;;;;;;21.02;9.25;;;;;;;7.38;76.15;101703.94;5032816;57;1136723;-76
2023/05/04 02:29:04;;;;;;;20.23;8.37;;;;;;;7.20;76.81;101712.19;5052222;57;1136810;-76
2023/05/04 02:34:10;;;;;;;17.80;7.60;;;;;;;7.16;76.84;101716.36;5025104;57;1138769;-77
2023/05/04 02:39:17;;;;;;;25.82;9.93;;;;;;;7.23;77.44;101711.20;4899269;58;1138800;-76
2023/05/04 02:44:23;;;;;;;19.50;8.87;;;;;;;7.28;77.94;101706.14;4918541;57;1138833;-77
2023/05/04 02:49:28;;;;;;;24.93;8.63;;;;;;;7.34;77.95;101705.84;4896005;58;1138876;-75
2023/05/04 02:54:34;;;;;;;17.53;8.80;;;;;;;7.34;77.83;101703.22;4980207;57;1136656;-77
2023/05/04 02:59:39;;;;;;;16.37;8.53;;;;;;;7.33;77.86;101708.58;4919609;58;1136841;-77
2023/05/04 03:04:45;;;;;;;14.33;7.77;;;;;;;7.28;77.53;101706.60;4980125;57;1136824;-77
2023/05/04 03:09:51;;;;;;;27.57;10.70;;;;;;;7.20;77.31;101708.25;4899667;58;1136875;-76
2023/05/04 03:14:56;;;;;;;16.67;7.47;;;;;;;7.07;77.13;101707.09;4980161;56;1138969;-76
2023/05/04 03:20:02;;;;;;;19.60;10.27;;;;;;;6.79;76.64;101715.32;4925996;58;1136650;-76
2023/05/04 03:25:09;;;;;;;23.93;9.67;;;;;;;6.54;77.26;101714.20;4900619;58;1138694;-76
2023/05/04 03:30:15;;;;;;;24.77;11.63;;;;;;;6.20;77.29;101719.98;4824000;58;1136606;-77
2023/05/04 03:35:22;;;;;;;20.20;10.30;;;;;;;5.96;78.49;101718.31;4920295;58;1138760;-75
2023/05/04 03:40:28;;;;;;;28.80;10.03;;;;;;;5.87;78.74;101727.38;4904601;58;1138791;-74
2023/05/04 03:45:34;;;;;;;21.90;10.03;;;;;;;5.77;79.09;101730.42;5082751;56;1140900;-77
2023/05/04 03:50:40;;;;;;;20.30;11.13;;;;;;;5.61;79.56;101729.70;5116973;55;1140816;-77
2023/05/04 03:55:46;;;;;;;28.20;14.43;;;;;;;5.46;80.45;101729.41;5096933;56;1140792;-78
2023/05/04 04:00:52;;;;;;;35.47;13.33;;;;;;;5.36;81.45;101732.81;5097515;54;1139034;-75
2023/05/04 04:05:58;;;;;;;32.73;13.17;;;;;;;5.42;82.87;101727.80;5097389;56;1138782;-77
2023/05/04 04:11:04;;;;;;;37.53;12.87;;;;;;;5.26;82.95;101732.30;5116630;54;1138753;-76
2023/05/04 04:16:10;;;;;;;33.63;14.10;;;;;;;5.36;85.41;101728.87;5084330;54;1138795;-77
2023/05/04 04:21:15;;;;;;;28.17;11.93;;;;;;;5.37;84.95;101729.73;5014089;56;1138810;-76
2023/05/04 04:26:21;;;;;;;23.83;11.33;;;;;;;5.55;88.00;101722.50;5116894;56;1140795;-72
2023/05/04 04:31:27;;;;;;;28.83;13.88;;;;;;;5.65;89.36;101729.13;5071388;55;1140890;-76
2023/05/04 04:36:32;;;;;;;28.90;15.33;;;;;;;5.79;88.51;101721.59;5038854;56;1138941;-75
2023/05/04 04:41:38;;;;;;;34.20;15.33;;;;;;;5.71;87.67;101722.32;5069452;57;1138870;-76
2023/05/04 04:46:45;;;;;;;26.63;13.20;;;;;;;5.63;88.39;101719.14;5026416;55;1138761;-75
2023/05/04 04:51:51;;;;;;;27.83;11.17;;;;;;;5.61;89.32;101717.89;5060198;55;1138908;-74
2023/05/04 04:56:58;;;;;;;23.20;10.30;;;;;;;5.65;89.94;101722.58;5066231;56;1138990;-76
2023/05/04 05:02:04;;;;;;;24.63;13.77;;;;;;;5.78;90.93;101725.13;5084170;56;1140952;-76
2023/05/04 05:07:09;;;;;;;34.43;14.63;;;;;;;5.94;91.80;101711.83;5012644;57;1140767;-74
2023/05/04 05:12:15;;;;;;;32.57;12.50;;;;;;;6.14;92.89;101718.90;5041218;56;1140778;-75
2023/05/04 05:17:21;;;;;;;28.60;11.67;;;;;;;6.34;93.79;101725.98;5021537;57;1138724;-76
2023/05/04 05:22:27;;;;;;;23.73;11.40;;;;;;;6.60;93.72;101720.50;5059778;57;1138998;-75
2023/05/04 05:27:34;;;;;;;21.37;11.10;;;;;;;6.91;93.87;101723.14;5066180;57;1139015;-75
2023/05/04 05:32:39;;;;;;;21.62;11.28;;;;;;;7.15;93.19;101733.07;5082246;56;1138737;-76
2023/05/04 05:37:45;;;;;;;28.50;12.77;;;;;;;7.59;92.78;101721.86;5065386;55;1138725;-76
2023/05/04 05:42:51;;;;;;;27.90;12.73;;;;;;;7.59;92.78;101721.86;5074163;55;1140852;-74
2023/05/04 05:47:56;;;;;;;26.25;12.18;;;;;;;7.85;92.96;101725.91;5069774;56;1140866;-75
2023/05/04 05:53:02;;;;;;;22.97;11.87;;;;;;;8.12;92.44;101721.48;5071277;56;1138606;-76
2023/05/04 05:58:08;;;;;;;19.30;9.47;;;;;;;8.33;92.26;101723.59;5096391;56;1138724;-76
2023/05/04 06:03:13;;;;;;;24.33;11.57;;;;;;;8.66;90.42;101726.34;5055818;56;1136799;-74
2023/05/04 06:08:19;;;;;;;22.53;9.73;;;;;;;8.77;88.18;101721.83;5033539;56;1138801;-75
2023/05/04 06:13:25;;;;;;;18.57;9.43;;;;;;;8.95;87.15;101723.99;5037582;56;1138782;-74
2023/05/04 06:18:30;;;;;;;20.70;9.28;;;;;;;9.23;87.36;101730.86;5013863;56;1138690;-76
2023/05/04 06:23:36;;;;;;;20.37;10.43;;;;;;;9.44;85.54;101730.20;5082692;56;1138984;-76
2023/05/04 06:28:42;;;;;;;26.73;11.15;;;;;;;9.76;86.07;101726.66;5096369;56;1140857;-75
2023/05/04 06:33:47;;;;;;;21.07;10.70;;;;;;;10.17;85.12;101718.20;5045426;56;1140874;-74
2023/05/04 06:38:54;;;;;;;20.40;10.27;;;;;;;10.56;84.71;101711.11;5055256;56;1143009;-75
2023/05/04 06:44:00;;;;;;;20.93;9.63;;;;;;;10.95;84.45;101717.17;5069473;56;1143009;-74
2023/05/04 06:49:06;;;;;;;18.67;10.33;;;;;;;11.21;82.60;101710.29;5011026;56;1140986;-74
2023/05/04 06:54:12;;;;;;;21.13;11.03;;;;;;;11.27;79.56;101713.42;5071601;55;1142879;-76
2023/05/04 06:59:19;;;;;;;18.03;10.47;;;;;;;11.55;80.80;101707.73;5115467;56;1142960;-74
2023/05/04 07:04:24;;;;;;;26.57;10.87;;;;;;;11.81;79.79;101709.61;5041405;56;1142993;-76
2023/05/04 07:09:30;;;;;;;17.20;10.05;;;;;;;11.96;79.83;101698.02;4926032;58;1143274;-76
2023/05/04 07:14:36;;;;;;;16.82;10.08;;;;;;;12.35;81.46;101707.47;5106866;56;1142772;-75
2023/05/04 07:19:41;;;;;;;18.60;8.90;;;;;;;12.69;77.08;101703.77;5050899;55;1142993;-76
2023/05/04 07:24:47;;;;;;;15.23;7.70;;;;;;;12.99;74.98;101700.82;5051142;56;1140945;-76
2023/05/04 07:29:53;;;;;;;18.20;6.60;;;;;;;12.98;73.46;101702.28;5036592;56;1140839;-77
2023/05/04 07:34:58;;;;;;;15.53;5.87;;;;;;;12.99;71.91;101695.51;4965807;57;1140837;-76
2023/05/04 07:40:06;;;;;;;10.37;6.23;;;;;;;12.91;67.39;101699.19;4946053;57;1140833;-77
2023/05/04 07:45:11;;;;;;;16.27;5.30;;;;;;;12.96;68.10;101700.20;5001505;56;1140963;-76
2023/05/04 07:50:17;;;;;;;11.37;4.70;;;;;;;13.10;67.44;101714.70;4998296;57;1140731;-76
2023/05/04 07:55:25;;;;;;;11.23;3.80;;;;;;;13.34;66.15;101698.88;4975653;57;1141069;-76
2023/05/04 08:00:30;;;;;;;9.97;4.60;;;;;;;13.53;64.18;101693.97;4979551;57;1140914;-76
2023/05/04 08:05:36;;;;;;;11.20;3.17;;;;;;;13.83;65.52;101685.60;4922569;58;1138759;-75
2023/05/04 08:10:41;;;;;;;16.62;3.20;;;;;;;14.11;60.04;101683.09;4902297;57;1141053;-76
2023/05/04 08:15:47;;;;;;;5.93;2.53;;;;;;;14.21;62.85;101681.44;4894931;56;1140831;-75
2023/05/04 08:20:52;;;;;;;7.00;2.60;;;;;;;14.29;59.42;101683.06;4973547;56;1138907;-77
2023/05/04 08:26:00;;;;;;;8.20;2.30;;;;;;;14.48;61.10;101683.05;4958968;58;1138713;-75
2023/05/04 08:31:06;;;;;;;6.47;2.73;;;;;;;14.88;61.46;101672.86;4905808;57;1138727;-76
2023/05/04 08:36:12;;;;;;;9.23;3.40;;;;;;;14.96;58.10;101675.80;4940691;57;1138790;-76
2023/05/04 08:41:17;;;;;;;5.93;3.23;;;;;;;15.11;61.94;101665.27;4992658;57;1138920;-76
2023/05/04 08:46:23;;;;;;;8.20;3.05;;;;;;;14.98;56.49;101670.68;4930747;57;1138863;-76
2023/05/04 08:51:31;;;;;;;10.63;3.17;;;;;;;14.91;57.01;101679.28;4950324;57;1139536;-75
2023/05/04 08:56:41;;;;;;;9.78;3.20;;;;;;;15.03;55.97;101676.99;5007380;57;1140969;-75
2023/05/04 09:01:51;;;;;;;8.87;2.70;;;;;;;15.21;57.25;101676.05;4951326;57;1138823;-75
2023/05/04 09:06:57;;;;;;;9.43;4.07;;;;;;;15.27;57.87;101675.09;4951166;57;1138912;-75
2023/05/04 09:12:03;;;;;;;7.25;2.90;;;;;;;15.59;57.62;101668.53;4946374;57;1139022;-79
2023/05/04 09:17:24;;;;;;;7.47;3.13;;;;;;;15.71;55.37;101668.90;5095905;55;1138656;-75
2023/05/04 09:22:26;;;;;;;5.27;2.83;;;;;;;15.67;53.90;101664.78;5087934;55;1138738;-76
2023/05/04 09:27:32;;;;;;;7.40;3.17;;;;;;;15.85;54.10;101669.59;5045326;55;1138681;-76
2023/05/04 09:32:48;;;;;;;8.45;3.05;;;;;;;15.95;53.17;101663.38;5069757;56;1138791;-77
2023/05/04 09:37:54;;;;;;;5.00;2.90;;;;;;;16.15;52.89;101657.25;5032417;56;1139074;-78
2023/05/04 09:43:00;;;;;;;7.60;2.27;;;;;;;16.24;50.57;101650.28;4960023;57;1139146;-77
2023/05/04 09:48:27;;;;;;;7.47;2.65;;;;;;;16.31;50.73;101652.81;4963710;57;1138800;-75
2023/05/04 09:53:35;;;;;;;2.87;1.93;;;;;;;16.60;50.42;101643.67;5060127;56;1138831;-76
2023/05/04 09:58:41;;;;;;;7.30;2.30;;;;;;;16.68;48.98;101631.87;5140531;55;1138684;-76
2023/05/04 10:03:48;;;;;;;5.12;2.72;;;;;;;16.64;47.91;101628.28;5026080;56;1139050;-77
2023/05/04 10:08:55;;;;;;;13.97;2.30;;;;;;;16.75;48.28;101636.21;5076259;56;1138914;-78
2023/05/04 10:14:00;;;;;;;7.53;2.53;;;;;;;16.92;44.77;101617.39;5078648;56;1140929;-77
2023/05/04 10:19:19;;;;;;;4.20;2.37;;;;;;;17.28;44.60;101620.83;5044220;55;1139093;-76
2023/05/04 10:24:29;;;;;;;7.28;2.14;;;;;;;17.61;46.20;101610.30;5070055;56;1138859;-77
2023/05/04 10:29:36;;;;;;;3.20;2.00;;;;;;;17.79;47.00;101606.00;5061981;55;1138805;-77
2023/05/04 10:34:42;;;;;;;5.58;2.15;;;;;;;17.82;42.01;101595.02;5078393;56;1138733;-77
2023/05/04 10:39:54;;;;;;;8.45;2.50;;;;;;;17.75;45.71;101583.66;5078796;56;1138971;-75
2023/05/04 10:45:00;;;;;;;6.12;2.20;;;;;;;17.64;46.37;101591.83;5059404;56;1138905;-75
2023/05/04 10:50:08;;;;;;;3.77;1.87;;;;;;;17.78;46.96;101580.71;5070268;56;1138736;-77
2023/05/04 10:55:14;;;;;;;8.03;2.27;;;;;;;17.92;45.65;101575.78;5097922;56;1138771;-76
2023/05/04 11:00:21;;;;;;;6.23;1.80;;;;;;;17.96;46.55;101575.02;4879909;57;1138899;-75
2023/05/04 11:05:28;;;;;;;5.40;2.17;;;;;;;18.02;47.14;101561.58;5070641;56;1138806;-77
2023/05/04 11:10:33;;;;;;;6.65;2.17;;;;;;;18.25;42.39;101567.81;5055800;56;1138759;-76
2023/05/04 11:15:50;;;;;;;4.37;1.73;;;;;;;18.37;41.98;101574.34;5052529;56;1138904;-76
2023/05/04 11:20:56;;;;;;;10.57;2.60;;;;;;;18.47;44.24;101547.91;5057225;56;1138749;-78
2023/05/04 11:26:10;;;;;;;3.83;2.10;;;;;;;18.71;40.69;101541.22;5073011;56;1140870;-76
2023/05/04 11:31:17;;;;;;;6.53;2.10;;;;;;;18.61;40.45;101542.60;5068067;56;1138725;-77
2023/05/04 11:36:23;;;;;;;5.35;2.40;;;;;;;18.60;39.53;101535.06;4920421;57;1138770;-77
2023/05/04 11:41:30;;;;;;;5.42;2.27;;;;;;;18.40;40.53;101524.01;5051654;57;1138855;-77
2023/05/04 11:46:36;;;;;;;8.08;2.25;;;;;;;18.34;41.79;101515.20;5036633;56;1138956;-76
2023/05/04 11:51:42;;;;;;;4.22;2.25;;;;;;;18.57;42.99;101522.41;4946690;58;1138739;-76
2023/05/04 11:56:47;;;;;;;4.50;2.22;;;;;;;18.77;40.35;101521.88;4900246;58;1138906;-76
2023/05/04 12:01:53;;;;;;;9.68;2.55;;;;;;;18.89;41.29;101508.63;4999557;57;1138920;-77
2023/05/04 12:06:59;;;;;;;3.60;1.90;;;;;;;19.16;42.57;101507.77;4979964;57;1138759;-78
2023/05/04 12:12:05;;;;;;;5.28;2.40;;;;;;;19.46;43.85;101486.45;4846924;57;1138764;-77
2023/05/04 12:17:10;;;;;;;2.27;1.87;;;;;;;19.53;40.26;101501.83;4961803;57;1138783;-78
2023/05/04 12:22:16;;;;;;;10.08;2.70;;;;;;;19.80;42.60;101509.45;4890981;59;1138797;-77
2023/05/04 12:27:22;;;;;;;5.40;2.00;;;;;;;19.94;39.77;101500.34;4922099;58;1140830;-77
2023/05/04 12:32:29;;;;;;;6.45;3.05;;;;;;;20.09;39.99;101495.24;4883326;58;1138868;-78
2023/05/04 12:37:35;;;;;;;9.23;3.02;;;;;;;20.11;38.97;101489.22;4942129;57;1138836;-77
2023/05/04 12:42:41;;;;;;;5.60;2.83;;;;;;;20.01;38.22;101484.45;4918808;57;1138719;-77
2023/05/04 12:47:46;;;;;;;6.42;2.50;;;;;;;20.09;41.40;101485.84;4980048;56;1139025;-78
2023/05/04 12:52:52;;;;;;;7.65;2.65;;;;;;;20.30;40.40;101479.61;4989731;58;1138769;-76
2023/05/04 12:57:58;;;;;;;10.43;3.62;;;;;;;20.47;39.83;101475.18;4979494;57;1138680;-77
2023/05/04 13:03:04;;;;;;;24.07;3.58;;;;;;;20.49;39.37;101473.17;4978131;57;1140859;-76
2023/05/04 13:08:10;;;;;;;6.55;2.62;;;;;;;20.54;38.18;101459.27;4934993;57;1140889;-74
2023/05/04 13:13:16;;;;;;;7.67;3.02;;;;;;;20.46;38.12;101466.80;4980271;57;1138822;-76
2023/05/04 13:18:27;;;;;;;6.45;2.20;;;;;;;20.38;37.26;101456.50;4968039;57;1138819;-75
2023/05/04 13:23:29;;;;;;;8.70;2.47;;;;;;;20.35;38.60;101461.66;4979377;57;1139084;-73
2023/05/04 13:28:35;;;;;;;7.45;2.50;;;;;;;20.27;37.00;101453.06;4999094;58;1138754;-76
2023/05/04 13:33:41;;;;;;;5.50;2.60;;;;;;;20.15;36.40;101462.89;4979913;57;1138857;-75
2023/05/04 13:38:47;;;;;;;11.85;3.25;;;;;;;19.82;35.38;101447.89;4971314;57;1138756;-75
2023/05/04 13:43:53;;;;;;;7.45;2.35;;;;;;;19.73;37.58;101428.68;4998900;58;1140850;-75
2023/05/04 13:48:58;;;;;;;6.85;2.92;;;;;;;19.97;36.35;101425.34;4972380;57;1138745;-77
2023/05/04 13:54:04;;;;;;;13.50;2.40;;;;;;;20.01;37.18;101416.80;4979958;57;1138679;-78
2023/05/04 13:59:10;;;;;;;5.85;2.42;;;;;;;20.08;37.85;101402.24;5031974;56;1140988;-76
2023/05/04 14:04:15;;;;;;;8.33;2.85;;;;;;;20.24;37.84;101395.61;5025643;56;1138712;-77
2023/05/04 14:09:21;;;;;;;7.03;1.77;;;;;;;20.38;36.70;101382.11;5032423;56;1138921;-74
2023/05/04 14:14:27;;;;;;;11.66;2.80;;;;;;;20.36;37.34;101383.61;5041475;57;1138792;-75
2023/05/04 14:19:33;;;;;;;6.12;2.30;;;;;;;20.32;38.09;101385.39;5034098;55;1140893;-76
2023/05/04 14:24:39;;;;;;;10.10;2.52;;;;;;;20.25;37.02;101375.81;5035843;55;1138714;-75
2023/05/04 14:29:44;;;;;;;3.58;2.35;;;;;;;20.24;39.76;101375.97;5032269;56;1140968;-77
2023/05/04 14:34:50;;;;;;;10.40;3.02;;;;;;;20.42;41.88;101377.26;5013577;56;1138672;-76
2023/05/04 14:39:56;;;;;;;5.30;2.42;;;;;;;20.47;39.29;101370.91;5027325;56;1140810;-73
2023/05/04 14:45:02;;;;;;;7.17;2.80;;;;;;;20.34;38.71;101360.55;5022590;56;1138753;-68
2023/05/04 14:50:08;;;;;;;4.05;2.87;;;;;;;20.40;39.80;101353.73;5028238;57;1138867;-69
2023/05/04 14:55:14;;;;;;;10.45;3.35;;;;;;;20.44;40.23;101349.23;4979041;57;1139006;-72
2023/05/04 15:00:20;;;;;;;12.70;2.83;;;;;;;20.29;37.16;101351.66;4993814;57;1140909;-70
2023/05/04 15:05:25;;;;;;;11.73;2.90;;;;;;;20.13;38.87;101352.93;5001553;57;1140982;-69
2023/05/04 15:10:31;;;;;;;10.18;3.02;;;;;;;20.02;38.53;101347.81;5012919;56;1140987;-69
2023/05/04 15:15:41;;;;;;;9.83;2.80;;;;;;;19.94;39.42;101361.21;4999148;56;1140979;-70
2023/05/04 15:20:46;;;;;;;11.38;3.85;;;;;;;19.92;40.13;101354.66;5021988;57;1138932;-68
2023/05/04 15:25:52;;;;;;;36.08;28.85;;;;;;;20.02;40.49;101340.60;5013076;57;1140824;-72
2023/05/04 15:30:59;;;;;;;7.78;3.00;;;;;;;20.13;39.28;101340.84;4920322;58;1142938;-75
2023/05/04 15:36:08;;;;;;;3.25;2.75;;;;;;;19.93;36.73;101334.86;4949309;58;1139026;-75
2023/05/04 15:41:13;;;;;;;9.85;3.05;;;;;;;19.79;38.34;101336.80;4922711;58;1138945;-77
2023/05/04 15:46:19;;;;;;;6.37;2.98;;;;;;;19.74;39.79;101317.63;4977310;57;1138883;-74
2023/05/04 15:51:25;;;;;;;6.30;2.90;;;;;;;19.68;40.00;101322.31;5023613;57;1139090;-74
2023/05/04 15:56:31;;;;;;;14.45;4.22;;;;;;;19.65;40.35;101316.75;5003867;57;1138925;-75
2023/05/04 16:01:38;;;;;;;11.87;3.27;;;;;;;19.60;39.77;101312.35;5004233;56;1141196;-76
2023/05/04 16:06:44;;;;;;;4.93;3.07;;;;;;;19.57;40.68;101307.80;5033363;57;1150413;-77
2023/05/04 16:11:50;;;;;;;3.77;2.60;;;;;;;19.53;39.99;101310.47;5013694;57;1138766;-75
2023/05/04 16:16:56;;;;;;;38.13;14.98;;;;;;;19.44;40.62;101304.66;4989476;57;1138710;-75
2023/05/04 16:22:02;;;;;;;10.25;3.90;;;;;;;19.41;40.86;101308.99;4951665;58;1142879;-74
2023/05/04 16:27:07;;;;;;;21.30;3.70;;;;;;;19.41;40.88;101300.94;4932456;58;1140830;-74
2023/05/04 16:32:13;;;;;;;11.70;3.72;;;;;;;19.30;40.44;101294.00;4932342;58;1140849;-73
2023/05/04 16:37:18;;;;;;;9.55;3.92;;;;;;;19.20;41.32;101285.22;4951904;58;1140794;-73
2023/05/04 16:42:24;;;;;;;15.53;3.62;;;;;;;19.19;41.07;101284.37;4932602;58;1138697;-75
2023/05/04 16:47:29;;;;;;;9.88;4.53;;;;;;;19.15;41.31;101274.11;4975746;57;1140949;-76
2023/05/04 16:52:36;;;;;;;5.33;3.55;;;;;;;19.10;41.60;101275.91;4971069;58;1138788;-75
2023/05/04 16:57:42;;;;;;;13.08;3.55;;;;;;;19.04;40.25;101275.71;5089634;55;1138963;-77
2023/05/04 17:02:47;;;;;;;60.17;27.13;;;;;;;18.97;40.67;101269.61;5096772;55;1140903;-78
2023/05/04 17:07:53;;;;;;;19.65;6.60;;;;;;;18.93;40.08;101270.10;5096954;56;1142913;-75
2023/05/04 17:12:58;;;;;;;10.53;3.75;;;;;;;18.83;39.94;101275.53;5025333;57;1140917;-76
2023/05/04 17:18:04;;;;;;;18.62;7.45;;;;;;;18.76;40.66;101276.31;5082010;56;1141159;-75
2023/05/04 17:23:10;;;;;;;16.20;7.67;;;;;;;18.71;40.69;101278.59;5029152;56;1140796;-75
2023/05/04 17:28:15;;;;;;;69.67;30.92;;;;;;;18.68;41.05;101277.06;4958916;57;1140893;-74
2023/05/04 17:33:21;;;;;;;26.27;10.68;;;;;;;18.58;41.34;101283.84;4998618;56;1142923;-74
2023/05/04 17:38:27;;;;;;;25.57;10.98;;;;;;;18.46;40.94;101287.71;5044557;56;1142915;-76
2023/05/04 17:43:34;;;;;;;19.66;4.56;;;;;;;18.33;41.80;101282.38;5097018;56;1143025;-75
2023/05/04 17:48:39;;;;;;;13.73;7.23;;;;;;;18.25;42.17;101287.13;4930706;57;1140878;-76
2023/05/04 17:53:45;;;;;;;18.70;10.55;;;;;;;18.21;42.88;101285.73;5018084;56;1140892;-74
2023/05/04 17:58:50;;;;;;;22.20;9.27;;;;;;;18.21;44.14;101289.75;5038422;56;1142888;-76
2023/05/04 18:03:57;;;;;;;46.42;20.90;;;;;;;18.21;44.46;101283.90;5040287;55;1141014;-75
2023/05/04 18:09:03;;;;;;;34.33;15.48;;;;;;;18.18;44.63;101281.52;5014958;56;1142855;-74
2023/05/04 18:14:08;;;;;;;15.80;6.70;;;;;;;18.08;44.57;101283.41;5012154;56;1142886;-76
2023/05/04 18:19:14;;;;;;;20.67;6.33;;;;;;;18.04;45.12;101292.72;4970765;57;1140924;-77
2023/05/04 18:24:20;;;;;;;22.00;8.67;;;;;;;17.65;46.15;101284.52;4970024;58;1141039;-75
2023/05/04 18:29:26;;;;;;;38.03;16.87;;;;;;;17.65;46.15;101284.52;5025334;57;1140854;-73
2023/05/04 18:34:32;;;;;;;26.43;15.83;;;;;;;17.62;46.50;101303.50;5051544;57;1143110;-74
2023/05/04 18:39:37;;;;;;;35.47;19.20;;;;;;;17.56;47.17;101307.62;5097129;56;1143270;-75
2023/05/04 18:44:43;;;;;;;32.02;16.62;;;;;;;17.47;47.29;101305.30;4987143;56;1270461;-76
2023/05/04 18:49:55;;;;;;;37.30;21.13;;;;;;;17.44;47.61;101310.93;4960335;56;1143095;-74
2023/05/04 18:55:00;;;;;;;58.30;26.03;;;;;;;17.40;48.03;101316.23;5022050;56;1142823;-76
2023/05/04 19:00:07;;;;;;;53.90;24.80;;;;;;;17.34;48.13;101321.30;4942767;56;1142850;-77
2023/05/04 19:05:13;;;;;;;19.20;9.17;;;;;;;17.26;48.73;101330.05;4931521;57;1142920;-76
2023/05/04 19:10:19;;;;;;;30.47;7.77;;;;;;;17.13;48.82;101331.66;4868642;58;1141056;-77
2023/05/04 19:15:25;;;;;;;23.80;6.23;;;;;;;17.04;49.31;101333.85;4931966;58;1140925;-78
2023/05/04 19:20:31;;;;;;;12.70;5.43;;;;;;;16.97;49.77;101334.05;4955511;57;1141025;-73
2023/05/04 19:25:37;;;;;;;24.45;9.20;;;;;;;16.86;50.44;101336.86;4991980;55;1140888;-77
2023/05/04 19:30:42;;;;;;;23.73;8.83;;;;;;;16.65;51.14;101343.64;5000492;57;1140785;-75
2023/05/04 19:35:48;;;;;;;19.48;6.65;;;;;;;16.46;52.04;101333.77;4969399;56;1141032;-74
2023/05/04 19:40:54;;;;;;;22.85;5.40;;;;;;;16.39;52.65;101345.11;4898066;57;1140795;-76
2023/05/04 19:46:01;;;;;;;28.70;8.73;;;;;;;16.31;53.13;101335.62;4927550;58;1140984;-77
2023/05/04 19:51:07;;;;;;;15.30;6.60;;;;;;;16.25;53.82;101338.81;4909082;58;1140916;-77
2023/05/04 19:56:12;;;;;;;14.47;7.27;;;;;;;16.19;54.19;101334.88;4891741;59;1141103;-76
2023/05/04 20:01:18;;;;;;;14.57;7.63;;;;;;;16.11;54.53;101324.02;4907140;58;1141069;-75
2023/05/04 20:06:25;;;;;;;20.57;11.70;;;;;;;16.01;54.98;101326.67;4905498;57;1140799;-77
2023/05/04 20:11:31;;;;;;;17.40;9.07;;;;;;;15.91;55.35;101320.42;4928187;56;1143140;-77
2023/05/04 20:16:37;;;;;;;20.77;10.98;;;;;;;15.80;55.96;101317.86;5013042;57;1141023;-76
2023/05/04 20:21:44;;;;;;;19.77;10.20;;;;;;;15.78;56.18;101319.31;4979994;57;1143084;-79
2023/05/04 20:26:50;;;;;;;20.08;11.22;;;;;;;15.70;56.26;101322.30;4979353;56;1142981;-77
2023/05/04 20:31:56;;;;;;;26.37;13.90;;;;;;;15.61;56.82;101315.08;4979144;57;1143143;-78
2023/05/04 20:37:01;;;;;;;38.53;16.70;;;;;;;15.58;57.21;101310.88;5020881;57;1143023;-78
2023/05/04 20:42:07;;;;;;;22.30;10.83;;;;;;;15.49;57.59;101307.13;5011279;57;1142939;-79
2023/05/04 20:47:12;;;;;;;28.50;9.47;;;;;;;15.49;57.59;101307.13;4982285;56;1143063;-77
2023/05/04 20:52:18;;;;;;;26.50;11.40;;;;;;;15.42;57.72;101313.14;4933639;57;1141107;-76
2023/05/04 20:57:25;;;;;;;26.10;10.80;;;;;;;15.35;57.77;101317.28;5009204;57;1142902;-77
2023/05/04 21:02:31;;;;;;;24.57;12.40;;;;;;;15.33;58.00;101319.23;4936470;57;1143158;-78
2023/05/04 21:07:36;;;;;;;36.43;12.97;;;;;;;15.39;57.99;101313.39;4910673;57;1142989;-76
2023/05/04 21:12:42;;;;;;;26.33;10.63;;;;;;;15.49;58.25;101312.47;4977349;56;1142889;-76
2023/05/04 21:17:48;;;;;;;23.05;12.98;;;;;;;15.51;58.18;101317.67;5001126;56;1142969;-77
2023/05/04 21:22:54;;;;;;;35.93;15.43;;;;;;;15.51;58.02;101315.48;4886182;58;1142835;-79
2023/05/04 21:28:00;;;;;;;18.93;10.67;;;;;;;15.51;58.12;101311.00;4900801;57;1143090;-79
2023/05/04 21:33:05;;;;;;;21.37;9.57;;;;;;;15.45;58.30;101305.70;4903947;57;1143145;-78
2023/05/04 21:38:13;;;;;;;19.90;8.93;;;;;;;15.36;58.42;101309.64;5042020;56;1140991;-78
2023/05/04 21:43:18;;;;;;;18.70;8.93;;;;;;;15.23;58.57;101305.00;5054388;56;1140796;-76
2023/05/04 21:48:24;;;;;;;19.40;9.30;;;;;;;15.15;58.75;101309.62;5039185;56;1140751;-77
2023/05/04 21:53:32;;;;;;;17.73;9.43;;;;;;;15.16;58.94;101309.14;5040007;55;1140779;-79
2023/05/04 21:58:39;;;;;;;19.57;9.48;;;;;;;15.16;58.98;101305.99;5027707;55;1140912;-76
2023/05/04 22:03:45;;;;;;;23.97;9.00;;;;;;;15.23;59.24;101314.33;5037525;56;1140981;-78
2023/05/04 22:08:51;;;;;;;19.87;9.00;;;;;;;15.17;59.38;101316.17;5055140;56;1140877;-77
2023/05/04 22:13:56;;;;;;;17.23;8.00;;;;;;;15.02;59.10;101319.63;5023251;56;1140974;-76
2023/05/04 22:19:02;;;;;;;26.57;7.67;;;;;;;14.86;59.19;101323.20;5052508;56;1140785;-77
2023/05/04 22:24:09;;;;;;;18.87;7.13;;;;;;;14.74;59.63;101324.59;4973852;57;1140785;-76
2023/05/04 22:29:15;;;;;;;19.57;8.10;;;;;;;14.60;59.66;101327.54;4958841;57;1140784;-76
2023/05/04 22:34:20;;;;;;;18.97;7.93;;;;;;;14.43;60.36;101329.39;4970137;57;1140798;-78
2023/05/04 22:39:26;;;;;;;14.60;6.77;;;;;;;14.12;61.91;101332.30;5042195;56;1140920;-76
2023/05/04 22:44:33;;;;;;;16.47;6.90;;;;;;;13.75;63.20;101334.33;5041913;56;1140849;-76
2023/05/04 22:49:40;;;;;;;17.43;6.33;;;;;;;13.46;64.34;101341.05;4967647;56;1140934;-78
2023/05/04 22:54:45;;;;;;;23.83;5.97;;;;;;;13.35;66.36;101344.54;4975534;57;1144598;-75
2023/05/04 22:59:51;;;;;;;11.03;5.40;;;;;;;13.15;66.73;101346.52;5042121;56;1140930;-77